sensor_id;sensor_type;location;lat;lon;timestamp;temperature;humidity
52575;DHT22;38468;48.114;-1.684;2023-06-14T00:00:03;18.90;67.80
52575;DHT22;38468;48.114;-1.684;2023-06-14T00:02:05;18.90;67.80
52575;DHT22;38468;48.114;-1.684;2023-06-14T00:04:09;18.80;68.20
52575;DHT22;38468;48.114;-1.684;2023-06-14T00:06:11;18.90;68.10
52575;DHT22;38468;48.114;-1.684;2023-06-14T00:08:13;18.80;68.20
52575;DHT22;38468;48.114;-1.684;2023-06-14T00:10:18;18.80;68.60
52575;DHT22;38468;48.114;-1.684;2023-06-14T00:12:22;18.80;68.70
52575;DHT22;38468;48.114;-1.684;2023-06-14T00:14:25;18.80;68.70
52575;DHT22;38468;48.114;-1.684;2023-06-14T00:16:26;18.80;68.50
52575;DHT22;38468;48.114;-1.684;2023-06-14T00:18:28;18.80;69.00
52575;DHT22;38468;48.114;-1.684;2023-06-14T00:20:33;18.70;69.10
52575;DHT22;38468;48.114;-1.684;2023-06-14T00:22:34;18.70;69.30
52575;DHT22;38468;48.114;-1.684;2023-06-14T00:24:37;18.70;69.20
52575;DHT22;38468;48.114;-1.684;2023-06-14T00:26:38;18.60;69.40
52575;DHT22;38468;48.114;-1.684;2023-06-14T00:28:39;18.70;69.60
52575;DHT22;38468;48.114;-1.684;2023-06-14T00:30:41;18.60;69.60
52575;DHT22;38468;48.114;-1.684;2023-06-14T00:32:45;18.60;69.80
52575;DHT22;38468;48.114;-1.684;2023-06-14T00:34:46;18.50;70.00
52575;DHT22;38468;48.114;-1.684;2023-06-14T00:36:47;18.50;70.00
52575;DHT22;38468;48.114;-1.684;2023-06-14T00:38:48;18.50;70.00
52575;DHT22;38468;48.114;-1.684;2023-06-14T00:40:49;18.50;70.40
52575;DHT22;38468;48.114;-1.684;2023-06-14T00:42:51;18.50;70.60
52575;DHT22;38468;48.114;-1.684;2023-06-14T00:44:56;18.50;70.50
52575;DHT22;38468;48.114;-1.684;2023-06-14T00:47:00;18.50;70.60
52575;DHT22;38468;48.114;-1.684;2023-06-14T00:49:02;18.40;71.00
52575;DHT22;38468;48.114;-1.684;2023-06-14T00:51:06;18.40;70.80
52575;DHT22;38468;48.114;-1.684;2023-06-14T00:53:08;18.40;71.10
52575;DHT22;38468;48.114;-1.684;2023-06-14T00:55:12;18.40;71.10
52575;DHT22;38468;48.114;-1.684;2023-06-14T00:57:14;18.40;71.40
52575;DHT22;38468;48.114;-1.684;2023-06-14T00:59:15;18.30;71.50
52575;DHT22;38468;48.114;-1.684;2023-06-14T01:01:22;18.30;71.40
52575;DHT22;38468;48.114;-1.684;2023-06-14T01:03:24;18.30;71.40
52575;DHT22;38468;48.114;-1.684;2023-06-14T01:05:26;18.30;71.60
52575;DHT22;38468;48.114;-1.684;2023-06-14T01:09:47;18.20;71.80
52575;DHT22;38468;48.114;-1.684;2023-06-14T01:12:19;18.20;71.90
52575;DHT22;38468;48.114;-1.684;2023-06-14T01:14:22;18.20;71.90
52575;DHT22;38468;48.114;-1.684;2023-06-14T01:16:25;18.20;72.00
52575;DHT22;38468;48.114;-1.684;2023-06-14T01:18:30;18.10;72.30
52575;DHT22;38468;48.114;-1.684;2023-06-14T01:20:35;18.20;72.30
52575;DHT22;38468;48.114;-1.684;2023-06-14T01:22:55;18.10;72.40
52575;DHT22;38468;48.114;-1.684;2023-06-14T01:24:56;18.10;72.30
52575;DHT22;38468;48.114;-1.684;2023-06-14T01:27:00;18.10;72.20
52575;DHT22;38468;48.114;-1.684;2023-06-14T01:29:03;18.10;72.30
52575;DHT22;38468;48.114;-1.684;2023-06-14T01:31:04;18.10;72.40
52575;DHT22;38468;48.114;-1.684;2023-06-14T01:33:09;18.10;72.60
52575;DHT22;38468;48.114;-1.684;2023-06-14T01:35:11;18.10;72.60
52575;DHT22;38468;48.114;-1.684;2023-06-14T01:37:12;18.00;72.90
52575;DHT22;38468;48.114;-1.684;2023-06-14T01:39:14;18.00;73.00
52575;DHT22;38468;48.114;-1.684;2023-06-14T01:41:22;18.00;73.10
52575;DHT22;38468;48.114;-1.684;2023-06-14T01:43:25;18.00;73.10
52575;DHT22;38468;48.114;-1.684;2023-06-14T01:45:27;18.00;73.20
52575;DHT22;38468;48.114;-1.684;2023-06-14T01:47:31;18.00;73.10
52575;DHT22;38468;48.114;-1.684;2023-06-14T01:49:34;18.00;73.30
52575;DHT22;38468;48.114;-1.684;2023-06-14T01:51:36;18.00;73.60
52575;DHT22;38468;48.114;-1.684;2023-06-14T01:53:37;18.00;73.40
52575;DHT22;38468;48.114;-1.684;2023-06-14T01:55:38;18.00;73.60
52575;DHT22;38468;48.114;-1.684;2023-06-14T01:57:47;18.00;73.70
52575;DHT22;38468;48.114;-1.684;2023-06-14T01:59:48;17.90;73.90
52575;DHT22;38468;48.114;-1.684;2023-06-14T02:01:55;17.90;74.10
52575;DHT22;38468;48.114;-1.684;2023-06-14T02:03:56;17.90;74.10
52575;DHT22;38468;48.114;-1.684;2023-06-14T02:05:58;17.80;74.20
52575;DHT22;38468;48.114;-1.684;2023-06-14T02:08:00;17.90;74.10
52575;DHT22;38468;48.114;-1.684;2023-06-14T02:10:04;17.80;74.20
52575;DHT22;38468;48.114;-1.684;2023-06-14T02:12:07;17.80;74.20
52575;DHT22;38468;48.114;-1.684;2023-06-14T02:14:12;17.90;74.20
52575;DHT22;38468;48.114;-1.684;2023-06-14T02:16:13;17.80;74.30
52575;DHT22;38468;48.114;-1.684;2023-06-14T02:18:15;17.80;74.40
52575;DHT22;38468;48.114;-1.684;2023-06-14T02:20:18;17.80;74.20
52575;DHT22;38468;48.114;-1.684;2023-06-14T02:22:19;17.80;74.40
52575;DHT22;38468;48.114;-1.684;2023-06-14T02:24:22;17.80;74.30
52575;DHT22;38468;48.114;-1.684;2023-06-14T02:26:24;17.70;74.50
52575;DHT22;38468;48.114;-1.684;2023-06-14T02:28:29;17.70;74.80
52575;DHT22;38468;48.114;-1.684;2023-06-14T02:30:33;17.70;74.80
52575;DHT22;38468;48.114;-1.684;2023-06-14T02:32:34;17.70;74.70
52575;DHT22;38468;48.114;-1.684;2023-06-14T02:34:36;17.80;74.80
52575;DHT22;38468;48.114;-1.684;2023-06-14T02:36:37;17.80;74.70
52575;DHT22;38468;48.114;-1.684;2023-06-14T02:38:42;17.80;74.80
52575;DHT22;38468;48.114;-1.684;2023-06-14T02:40:43;17.80;75.00
52575;DHT22;38468;48.114;-1.684;2023-06-14T02:42:44;17.80;75.10
52575;DHT22;38468;48.114;-1.684;2023-06-14T02:44:48;17.70;75.30
52575;DHT22;38468;48.114;-1.684;2023-06-14T02:46:51;17.70;75.50
52575;DHT22;38468;48.114;-1.684;2023-06-14T02:48:52;17.70;75.30
52575;DHT22;38468;48.114;-1.684;2023-06-14T02:50:53;17.70;75.20
52575;DHT22;38468;48.114;-1.684;2023-06-14T02:52:57;17.70;75.40
52575;DHT22;38468;48.114;-1.684;2023-06-14T02:55:02;17.70;75.40
52575;DHT22;38468;48.114;-1.684;2023-06-14T02:57:03;17.70;75.50
52575;DHT22;38468;48.114;-1.684;2023-06-14T02:59:03;17.70;75.50
52575;DHT22;38468;48.114;-1.684;2023-06-14T03:01:05;17.60;75.70
52575;DHT22;38468;48.114;-1.684;2023-06-14T03:03:08;17.60;75.70
52575;DHT22;38468;48.114;-1.684;2023-06-14T03:05:14;17.60;75.80
52575;DHT22;38468;48.114;-1.684;2023-06-14T03:07:14;17.60;75.80
52575;DHT22;38468;48.114;-1.684;2023-06-14T03:09:20;17.60;76.10
52575;DHT22;38468;48.114;-1.684;2023-06-14T03:11:21;17.50;76.10
52575;DHT22;38468;48.114;-1.684;2023-06-14T03:13:22;17.50;76.00
52575;DHT22;38468;48.114;-1.684;2023-06-14T03:15:23;17.50;75.80
52575;DHT22;38468;48.114;-1.684;2023-06-14T03:17:24;17.60;75.60
52575;DHT22;38468;48.114;-1.684;2023-06-14T03:19:30;17.50;76.10
52575;DHT22;38468;48.114;-1.684;2023-06-14T03:21:31;17.50;76.20
52575;DHT22;38468;48.114;-1.684;2023-06-14T03:23:31;17.50;76.20
52575;DHT22;38468;48.114;-1.684;2023-06-14T03:25:32;17.50;76.30
52575;DHT22;38468;48.114;-1.684;2023-06-14T03:27:36;17.50;76.30
52575;DHT22;38468;48.114;-1.684;2023-06-14T03:29:37;17.50;76.60
52575;DHT22;38468;48.114;-1.684;2023-06-14T03:31:59;17.50;76.40
52575;DHT22;38468;48.114;-1.684;2023-06-14T03:34:00;17.40;76.50
52575;DHT22;38468;48.114;-1.684;2023-06-14T03:36:02;17.40;76.60
52575;DHT22;38468;48.114;-1.684;2023-06-14T03:38:03;17.50;76.50
52575;DHT22;38468;48.114;-1.684;2023-06-14T03:40:04;17.40;76.70
52575;DHT22;38468;48.114;-1.684;2023-06-14T03:42:06;17.40;76.80
52575;DHT22;38468;48.114;-1.684;2023-06-14T03:44:07;17.40;76.60
52575;DHT22;38468;48.114;-1.684;2023-06-14T03:46:08;17.40;76.70
52575;DHT22;38468;48.114;-1.684;2023-06-14T03:48:09;17.40;76.60
52575;DHT22;38468;48.114;-1.684;2023-06-14T03:50:10;17.30;76.90
52575;DHT22;38468;48.114;-1.684;2023-06-14T03:52:11;17.30;76.90
52575;DHT22;38468;48.114;-1.684;2023-06-14T03:54:11;17.30;77.00
52575;DHT22;38468;48.114;-1.684;2023-06-14T03:56:12;17.30;76.90
52575;DHT22;38468;48.114;-1.684;2023-06-14T03:58:13;17.30;77.00
52575;DHT22;38468;48.114;-1.684;2023-06-14T04:00:14;17.30;77.20
52575;DHT22;38468;48.114;-1.684;2023-06-14T04:02:15;17.30;77.20
52575;DHT22;38468;48.114;-1.684;2023-06-14T04:04:16;17.30;77.00
52575;DHT22;38468;48.114;-1.684;2023-06-14T04:06:17;17.30;77.20
52575;DHT22;38468;48.114;-1.684;2023-06-14T04:08:19;17.20;77.40
52575;DHT22;38468;48.114;-1.684;2023-06-14T04:10:20;17.20;77.30
52575;DHT22;38468;48.114;-1.684;2023-06-14T04:12:21;17.20;77.20
52575;DHT22;38468;48.114;-1.684;2023-06-14T04:14:21;17.20;77.30
52575;DHT22;38468;48.114;-1.684;2023-06-14T04:16:22;17.20;77.20
52575;DHT22;38468;48.114;-1.684;2023-06-14T04:18:24;17.20;77.30
52575;DHT22;38468;48.114;-1.684;2023-06-14T04:20:24;17.20;77.30
52575;DHT22;38468;48.114;-1.684;2023-06-14T04:22:26;17.20;77.30
52575;DHT22;38468;48.114;-1.684;2023-06-14T04:24:30;17.20;77.10
52575;DHT22;38468;48.114;-1.684;2023-06-14T04:26:32;17.20;77.40
52575;DHT22;38468;48.114;-1.684;2023-06-14T04:28:33;17.20;77.20
52575;DHT22;38468;48.114;-1.684;2023-06-14T04:30:37;17.20;77.40
52575;DHT22;38468;48.114;-1.684;2023-06-14T04:32:39;17.20;77.30
52575;DHT22;38468;48.114;-1.684;2023-06-14T04:34:40;17.10;77.50
52575;DHT22;38468;48.114;-1.684;2023-06-14T04:36:42;17.20;77.40
52575;DHT22;38468;48.114;-1.684;2023-06-14T04:38:49;17.20;77.30
52575;DHT22;38468;48.114;-1.684;2023-06-14T04:40:50;17.20;77.30
52575;DHT22;38468;48.114;-1.684;2023-06-14T04:42:53;17.10;77.50
52575;DHT22;38468;48.114;-1.684;2023-06-14T04:44:54;17.10;77.50
52575;DHT22;38468;48.114;-1.684;2023-06-14T04:46:57;17.10;77.40
52575;DHT22;38468;48.114;-1.684;2023-06-14T04:48:59;17.10;77.50
52575;DHT22;38468;48.114;-1.684;2023-06-14T04:51:03;17.10;77.60
52575;DHT22;38468;48.114;-1.684;2023-06-14T04:53:04;17.10;77.60
52575;DHT22;38468;48.114;-1.684;2023-06-14T04:55:07;17.20;77.60
52575;DHT22;38468;48.114;-1.684;2023-06-14T04:57:09;17.20;77.50
52575;DHT22;38468;48.114;-1.684;2023-06-14T04:59:14;17.20;77.30
52575;DHT22;38468;48.114;-1.684;2023-06-14T05:01:15;17.20;77.30
52575;DHT22;38468;48.114;-1.684;2023-06-14T05:03:15;17.10;77.40
52575;DHT22;38468;48.114;-1.684;2023-06-14T05:05:18;17.20;77.50
52575;DHT22;38468;48.114;-1.684;2023-06-14T05:07:20;17.10;77.60
52575;DHT22;38468;48.114;-1.684;2023-06-14T05:09:20;17.20;77.50
52575;DHT22;38468;48.114;-1.684;2023-06-14T05:11:21;17.20;77.60
52575;DHT22;38468;48.114;-1.684;2023-06-14T05:13:24;17.20;77.60
52575;DHT22;38468;48.114;-1.684;2023-06-14T05:15:24;17.20;77.60
52575;DHT22;38468;48.114;-1.684;2023-06-14T05:17:26;17.20;77.30
52575;DHT22;38468;48.114;-1.684;2023-06-14T05:19:28;17.30;77.20
52575;DHT22;38468;48.114;-1.684;2023-06-14T05:21:29;17.30;77.20
52575;DHT22;38468;48.114;-1.684;2023-06-14T05:23:29;17.30;77.10
52575;DHT22;38468;48.114;-1.684;2023-06-14T05:25:30;17.30;77.20
52575;DHT22;38468;48.114;-1.684;2023-06-14T05:27:31;17.40;77.10
52575;DHT22;38468;48.114;-1.684;2023-06-14T05:29:31;17.40;77.20
52575;DHT22;38468;48.114;-1.684;2023-06-14T05:31:32;17.40;77.00
52575;DHT22;38468;48.114;-1.684;2023-06-14T05:33:33;17.40;77.00
52575;DHT22;38468;48.114;-1.684;2023-06-14T05:35:33;17.40;76.90
52575;DHT22;38468;48.114;-1.684;2023-06-14T05:37:34;17.40;77.10
52575;DHT22;38468;48.114;-1.684;2023-06-14T05:39:35;17.50;77.00
52575;DHT22;38468;48.114;-1.684;2023-06-14T05:41:35;17.50;76.80
52575;DHT22;38468;48.114;-1.684;2023-06-14T05:43:36;17.50;76.80
52575;DHT22;38468;48.114;-1.684;2023-06-14T05:45:37;17.50;76.90
52575;DHT22;38468;48.114;-1.684;2023-06-14T05:47:37;17.50;77.00
52575;DHT22;38468;48.114;-1.684;2023-06-14T05:49:38;17.50;76.80
52575;DHT22;38468;48.114;-1.684;2023-06-14T05:51:39;17.70;76.50
52575;DHT22;38468;48.114;-1.684;2023-06-14T05:53:39;17.70;76.20
52575;DHT22;38468;48.114;-1.684;2023-06-14T05:55:40;17.70;76.30
52575;DHT22;38468;48.114;-1.684;2023-06-14T05:57:40;17.80;76.00
52575;DHT22;38468;48.114;-1.684;2023-06-14T05:59:41;17.80;75.90
52575;DHT22;38468;48.114;-1.684;2023-06-14T06:01:42;17.80;75.70
52575;DHT22;38468;48.114;-1.684;2023-06-14T06:03:44;17.90;76.00
52575;DHT22;38468;48.114;-1.684;2023-06-14T06:05:46;17.90;75.90
52575;DHT22;38468;48.114;-1.684;2023-06-14T06:07:46;18.00;75.80
52575;DHT22;38468;48.114;-1.684;2023-06-14T06:09:47;18.00;75.70
52575;DHT22;38468;48.114;-1.684;2023-06-14T06:11:48;18.00;75.50
52575;DHT22;38468;48.114;-1.684;2023-06-14T06:13:48;18.00;75.40
52575;DHT22;38468;48.114;-1.684;2023-06-14T06:15:49;18.10;75.30
52575;DHT22;38468;48.114;-1.684;2023-06-14T06:17:50;18.20;75.20
52575;DHT22;38468;48.114;-1.684;2023-06-14T06:19:51;18.20;75.10
52575;DHT22;38468;48.114;-1.684;2023-06-14T06:21:52;18.30;75.00
52575;DHT22;38468;48.114;-1.684;2023-06-14T06:23:52;18.40;74.90
52575;DHT22;38468;48.114;-1.684;2023-06-14T06:25:55;18.40;74.50
52575;DHT22;38468;48.114;-1.684;2023-06-14T06:27:55;18.50;74.30
52575;DHT22;38468;48.114;-1.684;2023-06-14T06:29:57;18.50;74.00
52575;DHT22;38468;48.114;-1.684;2023-06-14T06:31:57;18.70;74.10
52575;DHT22;38468;48.114;-1.684;2023-06-14T06:33:58;18.90;73.80
52575;DHT22;38468;48.114;-1.684;2023-06-14T06:35:59;19.20;73.30
52575;DHT22;38468;48.114;-1.684;2023-06-14T06:37:59;19.50;72.20
52575;DHT22;38468;48.114;-1.684;2023-06-14T06:40:01;19.60;71.20
52575;DHT22;38468;48.114;-1.684;2023-06-14T06:42:03;19.80;71.00
52575;DHT22;38468;48.114;-1.684;2023-06-14T06:44:03;19.90;70.00
52575;DHT22;38468;48.114;-1.684;2023-06-14T06:46:04;20.00;70.10
52575;DHT22;38468;48.114;-1.684;2023-06-14T06:48:05;20.30;70.00
52575;DHT22;38468;48.114;-1.684;2023-06-14T06:50:06;20.50;69.10
52575;DHT22;38468;48.114;-1.684;2023-06-14T06:52:08;20.90;69.00
52575;DHT22;38468;48.114;-1.684;2023-06-14T06:54:09;21.10;68.10
52575;DHT22;38468;48.114;-1.684;2023-06-14T06:56:10;21.20;67.40
52575;DHT22;38468;48.114;-1.684;2023-06-14T06:58:11;21.50;67.40
52575;DHT22;38468;48.114;-1.684;2023-06-14T07:00:12;21.80;67.40
52575;DHT22;38468;48.114;-1.684;2023-06-14T07:02:13;21.90;66.70
52575;DHT22;38468;48.114;-1.684;2023-06-14T07:04:13;22.00;67.30
52575;DHT22;38468;48.114;-1.684;2023-06-14T07:06:14;22.00;66.30
52575;DHT22;38468;48.114;-1.684;2023-06-14T07:08:17;22.00;66.30
52575;DHT22;38468;48.114;-1.684;2023-06-14T07:10:18;21.90;66.00
52575;DHT22;38468;48.114;-1.684;2023-06-14T07:12:19;21.80;66.80
52575;DHT22;38468;48.114;-1.684;2023-06-14T07:14:19;21.90;65.90
52575;DHT22;38468;48.114;-1.684;2023-06-14T07:16:23;22.10;65.90
52575;DHT22;38468;48.114;-1.684;2023-06-14T07:18:24;22.20;66.90
52575;DHT22;38468;48.114;-1.684;2023-06-14T07:20:24;22.50;65.40
52575;DHT22;38468;48.114;-1.684;2023-06-14T07:22:26;22.80;64.90
52575;DHT22;38468;48.114;-1.684;2023-06-14T07:24:26;23.40;63.90
52575;DHT22;38468;48.114;-1.684;2023-06-14T07:26:28;24.10;63.40
52575;DHT22;38468;48.114;-1.684;2023-06-14T07:28:29;24.90;61.60
52575;DHT22;38468;48.114;-1.684;2023-06-14T07:30:29;25.70;60.20
52575;DHT22;38468;48.114;-1.684;2023-06-14T07:32:30;26.20;60.10
52575;DHT22;38468;48.114;-1.684;2023-06-14T07:34:31;26.70;57.20
52575;DHT22;38468;48.114;-1.684;2023-06-14T07:36:31;27.10;55.70
52575;DHT22;38468;48.114;-1.684;2023-06-14T07:38:32;27.30;52.60
52575;DHT22;38468;48.114;-1.684;2023-06-14T07:40:33;28.20;52.50
52575;DHT22;38468;48.114;-1.684;2023-06-14T07:42:34;28.60;52.40
52575;DHT22;38468;48.114;-1.684;2023-06-14T07:44:35;28.90;53.10
52575;DHT22;38468;48.114;-1.684;2023-06-14T07:46:36;28.80;49.00
52575;DHT22;38468;48.114;-1.684;2023-06-14T07:48:37;29.10;52.00
52575;DHT22;38468;48.114;-1.684;2023-06-14T07:50:38;29.50;51.60
52575;DHT22;38468;48.114;-1.684;2023-06-14T07:52:39;29.80;48.40
52575;DHT22;38468;48.114;-1.684;2023-06-14T07:54:40;29.50;47.80
52575;DHT22;38468;48.114;-1.684;2023-06-14T07:56:41;29.80;48.60
52575;DHT22;38468;48.114;-1.684;2023-06-14T07:58:42;30.10;48.40
52575;DHT22;38468;48.114;-1.684;2023-06-14T08:00:42;30.20;46.30
52575;DHT22;38468;48.114;-1.684;2023-06-14T08:02:44;30.20;45.90
52575;DHT22;38468;48.114;-1.684;2023-06-14T08:04:44;30.40;46.00
52575;DHT22;38468;48.114;-1.684;2023-06-14T08:06:45;30.50;46.10
52575;DHT22;38468;48.114;-1.684;2023-06-14T08:08:48;30.80;46.10
52575;DHT22;38468;48.114;-1.684;2023-06-14T08:10:48;30.90;44.30
52575;DHT22;38468;48.114;-1.684;2023-06-14T08:12:49;30.70;43.90
52575;DHT22;38468;48.114;-1.684;2023-06-14T08:14:53;31.00;44.50
52575;DHT22;38468;48.114;-1.684;2023-06-14T08:16:53;31.20;43.70
52575;DHT22;38468;48.114;-1.684;2023-06-14T08:18:55;31.30;42.20
52575;DHT22;38468;48.114;-1.684;2023-06-14T08:20:56;31.10;43.00
52575;DHT22;38468;48.114;-1.684;2023-06-14T08:22:58;31.10;42.80
52575;DHT22;38468;48.114;-1.684;2023-06-14T08:24:59;31.20;45.00
52575;DHT22;38468;48.114;-1.684;2023-06-14T08:26:59;31.60;43.30
52575;DHT22;38468;48.114;-1.684;2023-06-14T08:29:01;31.80;42.70
52575;DHT22;38468;48.114;-1.684;2023-06-14T08:31:02;31.70;42.30
52575;DHT22;38468;48.114;-1.684;2023-06-14T08:33:03;31.90;43.70
52575;DHT22;38468;48.114;-1.684;2023-06-14T08:35:04;32.20;42.40
52575;DHT22;38468;48.114;-1.684;2023-06-14T08:37:06;32.20;40.60
52575;DHT22;38468;48.114;-1.684;2023-06-14T08:39:07;32.10;40.70
52575;DHT22;38468;48.114;-1.684;2023-06-14T08:41:11;31.90;41.40
52575;DHT22;38468;48.114;-1.684;2023-06-14T08:43:13;31.90;41.20
52575;DHT22;38468;48.114;-1.684;2023-06-14T08:45:14;32.00;41.80
52575;DHT22;38468;48.114;-1.684;2023-06-14T08:47:15;31.80;40.40
52575;DHT22;38468;48.114;-1.684;2023-06-14T08:49:18;31.60;41.40
52575;DHT22;38468;48.114;-1.684;2023-06-14T08:51:19;32.10;40.30
52575;DHT22;38468;48.114;-1.684;2023-06-14T08:53:22;32.10;40.10
52575;DHT22;38468;48.114;-1.684;2023-06-14T08:55:23;32.00;41.00
52575;DHT22;38468;48.114;-1.684;2023-06-14T08:57:28;32.20;40.50
52575;DHT22;38468;48.114;-1.684;2023-06-14T08:59:31;32.30;40.40
52575;DHT22;38468;48.114;-1.684;2023-06-14T09:01:36;32.10;39.90
52575;DHT22;38468;48.114;-1.684;2023-06-14T09:03:36;31.80;40.40
52575;DHT22;38468;48.114;-1.684;2023-06-14T09:05:41;31.50;41.10
52575;DHT22;38468;48.114;-1.684;2023-06-14T09:07:42;31.30;41.70
52575;DHT22;38468;48.114;-1.684;2023-06-14T09:09:43;31.20;41.60
52575;DHT22;38468;48.114;-1.684;2023-06-14T09:11:44;30.80;42.50
52575;DHT22;38468;48.114;-1.684;2023-06-14T09:13:46;30.70;43.10
52575;DHT22;38468;48.114;-1.684;2023-06-14T09:15:46;30.70;43.30
52575;DHT22;38468;48.114;-1.684;2023-06-14T09:17:47;30.20;44.10
52575;DHT22;38468;48.114;-1.684;2023-06-14T09:19:48;30.00;44.90
52575;DHT22;38468;48.114;-1.684;2023-06-14T09:21:49;29.50;45.60
52575;DHT22;38468;48.114;-1.684;2023-06-14T09:23:50;29.20;45.90
52575;DHT22;38468;48.114;-1.684;2023-06-14T09:25:51;29.10;47.00
52575;DHT22;38468;48.114;-1.684;2023-06-14T09:27:51;29.10;47.20
52575;DHT22;38468;48.114;-1.684;2023-06-14T09:29:53;29.00;47.60
52575;DHT22;38468;48.114;-1.684;2023-06-14T09:31:53;28.70;47.70
52575;DHT22;38468;48.114;-1.684;2023-06-14T09:33:54;28.60;48.20
52575;DHT22;38468;48.114;-1.684;2023-06-14T09:35:56;28.70;49.10
52575;DHT22;38468;48.114;-1.684;2023-06-14T09:37:57;28.50;48.50
52575;DHT22;38468;48.114;-1.684;2023-06-14T09:39:58;28.50;48.90
52575;DHT22;38468;48.114;-1.684;2023-06-14T09:41:59;28.50;49.30
52575;DHT22;38468;48.114;-1.684;2023-06-14T09:44:01;28.40;49.30
52575;DHT22;38468;48.114;-1.684;2023-06-14T09:46:03;28.40;49.60
52575;DHT22;38468;48.114;-1.684;2023-06-14T09:48:06;28.30;49.40
52575;DHT22;38468;48.114;-1.684;2023-06-14T09:50:07;28.20;49.60
52575;DHT22;38468;48.114;-1.684;2023-06-14T09:52:10;28.10;49.90
52575;DHT22;38468;48.114;-1.684;2023-06-14T09:54:22;28.10;50.00
52575;DHT22;38468;48.114;-1.684;2023-06-14T09:56:28;28.00;50.10
52575;DHT22;38468;48.114;-1.684;2023-06-14T09:58:33;28.00;50.00
52575;DHT22;38468;48.114;-1.684;2023-06-14T10:00:37;28.10;49.70
52575;DHT22;38468;48.114;-1.684;2023-06-14T10:02:40;28.10;50.00
52575;DHT22;38468;48.114;-1.684;2023-06-14T10:04:46;28.10;50.30
52575;DHT22;38468;48.114;-1.684;2023-06-14T10:06:51;28.10;50.30
52575;DHT22;38468;48.114;-1.684;2023-06-14T10:08:56;28.10;50.40
52575;DHT22;38468;48.114;-1.684;2023-06-14T10:10:57;28.00;50.60
52575;DHT22;38468;48.114;-1.684;2023-06-14T10:12:58;28.10;50.00
52575;DHT22;38468;48.114;-1.684;2023-06-14T10:14:59;28.10;50.30
52575;DHT22;38468;48.114;-1.684;2023-06-14T10:17:10;28.00;49.40
52575;DHT22;38468;48.114;-1.684;2023-06-14T10:19:22;28.00;48.90
52575;DHT22;38468;48.114;-1.684;2023-06-14T10:21:45;28.00;49.30
52575;DHT22;38468;48.114;-1.684;2023-06-14T10:23:47;28.00;49.60
52575;DHT22;38468;48.114;-1.684;2023-06-14T10:25:57;28.00;49.70
52575;DHT22;38468;48.114;-1.684;2023-06-14T10:28:16;28.00;49.90
52575;DHT22;38468;48.114;-1.684;2023-06-14T10:30:24;28.10;49.50
52575;DHT22;38468;48.114;-1.684;2023-06-14T10:32:25;28.10;49.40
52575;DHT22;38468;48.114;-1.684;2023-06-14T10:34:31;28.00;49.30
52575;DHT22;38468;48.114;-1.684;2023-06-14T10:36:32;28.00;48.70
52575;DHT22;38468;48.114;-1.684;2023-06-14T10:38:36;28.00;48.90
52575;DHT22;38468;48.114;-1.684;2023-06-14T10:40:38;28.00;49.00
52575;DHT22;38468;48.114;-1.684;2023-06-14T10:42:51;28.00;49.00
52575;DHT22;38468;48.114;-1.684;2023-06-14T10:44:53;28.00;48.10
52575;DHT22;38468;48.114;-1.684;2023-06-14T10:47:00;28.00;48.20
52575;DHT22;38468;48.114;-1.684;2023-06-14T10:49:01;28.00;48.30
52575;DHT22;38468;48.114;-1.684;2023-06-14T10:51:03;28.00;48.30
52575;DHT22;38468;48.114;-1.684;2023-06-14T10:53:22;28.00;48.20
52575;DHT22;38468;48.114;-1.684;2023-06-14T10:55:23;28.10;48.30
52575;DHT22;38468;48.114;-1.684;2023-06-14T10:57:25;28.10;49.30
52575;DHT22;38468;48.114;-1.684;2023-06-14T10:59:25;28.10;49.00
52575;DHT22;38468;48.114;-1.684;2023-06-14T11:01:37;28.10;49.30
52575;DHT22;38468;48.114;-1.684;2023-06-14T11:03:50;28.20;49.30
52575;DHT22;38468;48.114;-1.684;2023-06-14T11:05:59;28.30;48.60
52575;DHT22;38468;48.114;-1.684;2023-06-14T11:12:21;28.60;48.50
52575;DHT22;38468;48.114;-1.684;2023-06-14T11:14:23;28.60;48.40
52575;DHT22;38468;48.114;-1.684;2023-06-14T11:16:26;28.60;48.20
52575;DHT22;38468;48.114;-1.684;2023-06-14T11:18:28;28.60;48.40
52575;DHT22;38468;48.114;-1.684;2023-06-14T11:20:31;28.50;47.80
52575;DHT22;38468;48.114;-1.684;2023-06-14T11:22:39;28.50;47.60
52575;DHT22;38468;48.114;-1.684;2023-06-14T11:24:40;28.50;47.10
52575;DHT22;38468;48.114;-1.684;2023-06-14T11:26:40;28.50;47.00
52575;DHT22;38468;48.114;-1.684;2023-06-14T11:28:41;28.50;47.70
52575;DHT22;38468;48.114;-1.684;2023-06-14T11:30:42;28.50;47.70
52575;DHT22;38468;48.114;-1.684;2023-06-14T11:32:49;28.60;48.00
52575;DHT22;38468;48.114;-1.684;2023-06-14T11:34:50;28.70;47.50
52575;DHT22;38468;48.114;-1.684;2023-06-14T11:36:51;28.70;48.10
52575;DHT22;38468;48.114;-1.684;2023-06-14T11:39:06;28.80;47.60
52575;DHT22;38468;48.114;-1.684;2023-06-14T11:41:07;28.90;47.90
52575;DHT22;38468;48.114;-1.684;2023-06-14T11:43:08;28.90;46.50
52575;DHT22;38468;48.114;-1.684;2023-06-14T11:45:10;28.80;44.60
52575;DHT22;38468;48.114;-1.684;2023-06-14T11:47:11;28.70;45.30
52575;DHT22;38468;48.114;-1.684;2023-06-14T11:49:12;28.70;46.30
52575;DHT22;38468;48.114;-1.684;2023-06-14T11:51:12;28.70;45.50
52575;DHT22;38468;48.114;-1.684;2023-06-14T11:53:14;28.80;45.00
52575;DHT22;38468;48.114;-1.684;2023-06-14T11:55:14;28.70;44.10
52575;DHT22;38468;48.114;-1.684;2023-06-14T11:57:17;28.70;43.50
52575;DHT22;38468;48.114;-1.684;2023-06-14T11:59:18;28.70;44.40
52575;DHT22;38468;48.114;-1.684;2023-06-14T12:01:20;28.70;44.10
52575;DHT22;38468;48.114;-1.684;2023-06-14T12:03:25;28.80;44.60
52575;DHT22;38468;48.114;-1.684;2023-06-14T12:05:29;28.80;43.70
52575;DHT22;38468;48.114;-1.684;2023-06-14T12:07:30;28.80;45.30
52575;DHT22;38468;48.114;-1.684;2023-06-14T12:09:32;28.90;43.60
52575;DHT22;38468;48.114;-1.684;2023-06-14T12:11:35;28.90;43.70
52575;DHT22;38468;48.114;-1.684;2023-06-14T12:13:38;28.80;43.00
52575;DHT22;38468;48.114;-1.684;2023-06-14T12:15:40;28.80;44.00
52575;DHT22;38468;48.114;-1.684;2023-06-14T12:17:42;28.90;43.60
52575;DHT22;38468;48.114;-1.684;2023-06-14T12:19:45;28.90;43.60
52575;DHT22;38468;48.114;-1.684;2023-06-14T12:21:47;29.00;43.20
52575;DHT22;38468;48.114;-1.684;2023-06-14T12:23:49;29.00;44.20
52575;DHT22;38468;48.114;-1.684;2023-06-14T12:25:51;29.00;43.70
52575;DHT22;38468;48.114;-1.684;2023-06-14T12:27:54;29.10;43.00
52575;DHT22;38468;48.114;-1.684;2023-06-14T12:30:04;29.00;42.90
52575;DHT22;38468;48.114;-1.684;2023-06-14T12:32:08;29.00;43.10
52575;DHT22;38468;48.114;-1.684;2023-06-14T12:34:08;29.10;43.20
52575;DHT22;38468;48.114;-1.684;2023-06-14T12:36:10;29.10;41.40
52575;DHT22;38468;48.114;-1.684;2023-06-14T12:38:11;29.00;41.40
52575;DHT22;38468;48.114;-1.684;2023-06-14T12:40:13;29.00;40.80
52575;DHT22;38468;48.114;-1.684;2023-06-14T12:42:13;29.00;41.60
52575;DHT22;38468;48.114;-1.684;2023-06-14T12:44:15;29.10;40.50
52575;DHT22;38468;48.114;-1.684;2023-06-14T12:46:16;29.10;41.20